sensor_id;sensor_type;location;lat;lon;timestamp;P1;durP1;ratioP1;P2;durP2;ratioP2
30874;SDS011;17581;43.222;27.924;2024-03-08T00:00:13;60.45;;;31.10;;
30874;SDS011;17581;43.222;27.924;2024-03-08T00:02:40;69.60;;;30.48;;
30874;SDS011;17581;43.222;27.924;2024-03-08T00:05:06;57.22;;;31.38;;
30874;SDS011;17581;43.222;27.924;2024-03-08T00:07:36;59.92;;;31.33;;
30874;SDS011;17581;43.222;27.924;2024-03-08T00:10:04;63.22;;;30.85;;
30874;SDS011;17581;43.222;27.924;2024-03-08T00:12:37;57.00;;;28.60;;
30874;SDS011;17581;43.222;27.924;2024-03-08T00:15:09;51.38;;;28.52;;
30874;SDS011;17581;43.222;27.924;2024-03-08T00:17:35;47.92;;;26.85;;
30874;SDS011;17581;43.222;27.924;2024-03-08T00:20:01;48.47;;;27.67;;
30874;SDS011;17581;43.222;27.924;2024-03-08T00:22:28;66.20;;;30.85;;
30874;SDS011;17581;43.222;27.924;2024-03-08T00:24:55;43.47;;;28.10;;
30874;SDS011;17581;43.222;27.924;2024-03-08T00:27:21;55.95;;;28.48;;
30874;SDS011;17581;43.222;27.924;2024-03-08T00:29:46;43.53;;;26.20;;
30874;SDS011;17581;43.222;27.924;2024-03-08T00:32:12;45.80;;;29.13;;
30874;SDS011;17581;43.222;27.924;2024-03-08T00:34:38;61.33;;;30.08;;
30874;SDS011;17581;43.222;27.924;2024-03-08T00:37:03;50.55;;;27.75;;
30874;SDS011;17581;43.222;27.924;2024-03-08T00:39:29;58.28;;;28.38;;
30874;SDS011;17581;43.222;27.924;2024-03-08T00:41:55;65.15;;;29.13;;
30874;SDS011;17581;43.222;27.924;2024-03-08T00:44:20;55.22;;;29.75;;
30874;SDS011;17581;43.222;27.924;2024-03-08T00:46:46;49.75;;;29.25;;
30874;SDS011;17581;43.222;27.924;2024-03-08T00:49:11;60.38;;;32.08;;
30874;SDS011;17581;43.222;27.924;2024-03-08T00:51:37;55.53;;;28.73;;
30874;SDS011;17581;43.222;27.924;2024-03-08T00:54:03;53.05;;;30.23;;
30874;SDS011;17581;43.222;27.924;2024-03-08T00:56:28;48.25;;;27.48;;
30874;SDS011;17581;43.222;27.924;2024-03-08T00:58:54;45.38;;;26.13;;
30874;SDS011;17581;43.222;27.924;2024-03-08T01:01:19;51.83;;;29.38;;
30874;SDS011;17581;43.222;27.924;2024-03-08T01:03:45;48.15;;;27.98;;
30874;SDS011;17581;43.222;27.924;2024-03-08T01:06:10;47.33;;;27.33;;
30874;SDS011;17581;43.222;27.924;2024-03-08T01:08:36;52.58;;;27.20;;
30874;SDS011;17581;43.222;27.924;2024-03-08T01:11:03;41.28;;;25.73;;
30874;SDS011;17581;43.222;27.924;2024-03-08T01:13:32;52.80;;;26.45;;
30874;SDS011;17581;43.222;27.924;2024-03-08T01:15:57;49.50;;;26.50;;
30874;SDS011;17581;43.222;27.924;2024-03-08T01:18:23;48.17;;;27.48;;
30874;SDS011;17581;43.222;27.924;2024-03-08T01:20:48;37.65;;;25.50;;
30874;SDS011;17581;43.222;27.924;2024-03-08T01:23:13;39.17;;;25.45;;
30874;SDS011;17581;43.222;27.924;2024-03-08T01:25:39;41.20;;;25.88;;
30874;SDS011;17581;43.222;27.924;2024-03-08T01:28:06;54.70;;;26.67;;
30874;SDS011;17581;43.222;27.924;2024-03-08T01:30:32;50.97;;;26.33;;
30874;SDS011;17581;43.222;27.924;2024-03-08T01:32:59;50.08;;;25.42;;
30874;SDS011;17581;43.222;27.924;2024-03-08T01:35:24;49.92;;;26.38;;
30874;SDS011;17581;43.222;27.924;2024-03-08T01:37:51;51.47;;;27.85;;
30874;SDS011;17581;43.222;27.924;2024-03-08T01:40:17;42.78;;;26.42;;
30874;SDS011;17581;43.222;27.924;2024-03-08T01:42:42;52.60;;;26.83;;
30874;SDS011;17581;43.222;27.924;2024-03-08T01:45:07;45.00;;;24.48;;
30874;SDS011;17581;43.222;27.924;2024-03-08T01:47:34;45.08;;;25.77;;
30874;SDS011;17581;43.222;27.924;2024-03-08T01:50:00;55.25;;;26.17;;
30874;SDS011;17581;43.222;27.924;2024-03-08T01:52:28;54.17;;;28.33;;
30874;SDS011;17581;43.222;27.924;2024-03-08T01:54:56;59.95;;;27.55;;
30874;SDS011;17581;43.222;27.924;2024-03-08T01:57:26;49.63;;;27.38;;
30874;SDS011;17581;43.222;27.924;2024-03-08T01:59:52;46.60;;;25.38;;
30874;SDS011;17581;43.222;27.924;2024-03-08T02:02:20;53.10;;;28.20;;
30874;SDS011;17581;43.222;27.924;2024-03-08T02:04:47;54.97;;;28.85;;
30874;SDS011;17581;43.222;27.924;2024-03-08T02:07:13;67.97;;;27.60;;
30874;SDS011;17581;43.222;27.924;2024-03-08T02:09:38;51.30;;;26.58;;
30874;SDS011;17581;43.222;27.924;2024-03-08T02:12:04;44.50;;;28.02;;
30874;SDS011;17581;43.222;27.924;2024-03-08T02:14:30;52.08;;;27.83;;
30874;SDS011;17581;43.222;27.924;2024-03-08T02:16:59;51.85;;;25.98;;
30874;SDS011;17581;43.222;27.924;2024-03-08T02:19:26;61.40;;;28.27;;
30874;SDS011;17581;43.222;27.924;2024-03-08T02:21:51;49.10;;;26.58;;
30874;SDS011;17581;43.222;27.924;2024-03-08T02:24:16;47.85;;;25.65;;
30874;SDS011;17581;43.222;27.924;2024-03-08T02:26:42;51.80;;;26.65;;
30874;SDS011;17581;43.222;27.924;2024-03-08T02:29:08;55.53;;;25.55;;
30874;SDS011;17581;43.222;27.924;2024-03-08T02:31:36;44.85;;;24.75;;
30874;SDS011;17581;43.222;27.924;2024-03-08T02:34:01;47.08;;;24.90;;
30874;SDS011;17581;43.222;27.924;2024-03-08T02:36:27;45.08;;;25.92;;
30874;SDS011;17581;43.222;27.924;2024-03-08T02:38:52;53.10;;;28.00;;
30874;SDS011;17581;43.222;27.924;2024-03-08T02:41:20;48.70;;;26.92;;
30874;SDS011;17581;43.222;27.924;2024-03-08T02:43:46;43.63;;;25.17;;
30874;SDS011;17581;43.222;27.924;2024-03-08T02:46:11;50.40;;;25.55;;
30874;SDS011;17581;43.222;27.924;2024-03-08T02:48:37;46.53;;;24.73;;
30874;SDS011;17581;43.222;27.924;2024-03-08T02:51:02;50.35;;;25.92;;
30874;SDS011;17581;43.222;27.924;2024-03-08T02:53:28;57.55;;;27.67;;
30874;SDS011;17581;43.222;27.924;2024-03-08T02:55:54;45.47;;;25.95;;
30874;SDS011;17581;43.222;27.924;2024-03-08T02:58:20;49.13;;;24.50;;
30874;SDS011;17581;43.222;27.924;2024-03-08T03:00:45;44.05;;;23.45;;
30874;SDS011;17581;43.222;27.924;2024-03-08T03:03:11;47.40;;;25.65;;
30874;SDS011;17581;43.222;27.924;2024-03-08T03:05:36;54.38;;;25.35;;
30874;SDS011;17581;43.222;27.924;2024-03-08T03:08:01;45.90;;;25.83;;
30874;SDS011;17581;43.222;27.924;2024-03-08T03:10:29;54.40;;;26.23;;
30874;SDS011;17581;43.222;27.924;2024-03-08T03:12:54;47.78;;;25.17;;
30874;SDS011;17581;43.222;27.924;2024-03-08T03:15:20;39.58;;;25.05;;
30874;SDS011;17581;43.222;27.924;2024-03-08T03:17:49;48.75;;;23.80;;
30874;SDS011;17581;43.222;27.924;2024-03-08T03:20:18;60.55;;;25.67;;
30874;SDS011;17581;43.222;27.924;2024-03-08T03:22:58;45.17;;;25.30;;
30874;SDS011;17581;43.222;27.924;2024-03-08T03:25:26;44.03;;;25.00;;
30874;SDS011;17581;43.222;27.924;2024-03-08T03:27:54;43.80;;;23.98;;
30874;SDS011;17581;43.222;27.924;2024-03-08T03:30:22;45.25;;;25.30;;
30874;SDS011;17581;43.222;27.924;2024-03-08T03:32:51;42.17;;;25.00;;
30874;SDS011;17581;43.222;27.924;2024-03-08T03:35:19;47.03;;;25.60;;
30874;SDS011;17581;43.222;27.924;2024-03-08T03:37:46;52.80;;;27.48;;
30874;SDS011;17581;43.222;27.924;2024-03-08T03:40:38;47.78;;;24.65;;
30874;SDS011;17581;43.222;27.924;2024-03-08T03:43:07;47.13;;;27.27;;
30874;SDS011;17581;43.222;27.924;2024-03-08T03:45:36;46.42;;;26.17;;
30874;SDS011;17581;43.222;27.924;2024-03-08T03:48:05;43.92;;;25.58;;
30874;SDS011;17581;43.222;27.924;2024-03-08T03:50:32;52.35;;;27.23;;
30874;SDS011;17581;43.222;27.924;2024-03-08T03:52:59;47.25;;;25.90;;
30874;SDS011;17581;43.222;27.924;2024-03-08T03:55:24;50.15;;;26.85;;
30874;SDS011;17581;43.222;27.924;2024-03-08T03:57:50;42.55;;;25.38;;
30874;SDS011;17581;43.222;27.924;2024-03-08T04:00:16;48.22;;;25.58;;
30874;SDS011;17581;43.222;27.924;2024-03-08T04:02:41;45.28;;;26.15;;
30874;SDS011;17581;43.222;27.924;2024-03-08T04:05:07;59.72;;;26.77;;
30874;SDS011;17581;43.222;27.924;2024-03-08T04:07:34;41.22;;;24.15;;
30874;SDS011;17581;43.222;27.924;2024-03-08T04:10:03;47.88;;;25.55;;
30874;SDS011;17581;43.222;27.924;2024-03-08T04:12:33;52.67;;;25.33;;
30874;SDS011;17581;43.222;27.924;2024-03-08T04:15:00;45.22;;;27.63;;
30874;SDS011;17581;43.222;27.924;2024-03-08T04:17:26;57.25;;;26.90;;
30874;SDS011;17581;43.222;27.924;2024-03-08T04:19:52;40.50;;;26.00;;
30874;SDS011;17581;43.222;27.924;2024-03-08T04:22:17;51.20;;;27.10;;
30874;SDS011;17581;43.222;27.924;2024-03-08T04:24:43;45.38;;;26.30;;
30874;SDS011;17581;43.222;27.924;2024-03-08T04:27:10;52.35;;;25.65;;
30874;SDS011;17581;43.222;27.924;2024-03-08T04:29:35;45.72;;;25.67;;
30874;SDS011;17581;43.222;27.924;2024-03-08T04:32:02;44.92;;;25.63;;
30874;SDS011;17581;43.222;27.924;2024-03-08T04:34:29;51.60;;;24.00;;
30874;SDS011;17581;43.222;27.924;2024-03-08T04:36:56;56.40;;;27.00;;
30874;SDS011;17581;43.222;27.924;2024-03-08T04:39:22;46.03;;;25.63;;
30874;SDS011;17581;43.222;27.924;2024-03-08T04:41:48;45.42;;;26.52;;
30874;SDS011;17581;43.222;27.924;2024-03-08T04:44:15;45.40;;;24.33;;
30874;SDS011;17581;43.222;27.924;2024-03-08T04:46:42;41.75;;;24.45;;
30874;SDS011;17581;43.222;27.924;2024-03-08T04:49:08;45.13;;;25.42;;
30874;SDS011;17581;43.222;27.924;2024-03-08T04:51:33;50.60;;;27.83;;
30874;SDS011;17581;43.222;27.924;2024-03-08T04:53:59;51.25;;;27.20;;
30874;SDS011;17581;43.222;27.924;2024-03-08T04:56:25;47.65;;;25.60;;
30874;SDS011;17581;43.222;27.924;2024-03-08T04:58:50;55.75;;;27.27;;
30874;SDS011;17581;43.222;27.924;2024-03-08T05:01:16;54.25;;;28.25;;
30874;SDS011;17581;43.222;27.924;2024-03-08T05:03:42;47.67;;;27.98;;
30874;SDS011;17581;43.222;27.924;2024-03-08T05:06:07;49.45;;;26.77;;
30874;SDS011;17581;43.222;27.924;2024-03-08T05:08:33;52.67;;;28.95;;
30874;SDS011;17581;43.222;27.924;2024-03-08T05:10:59;60.70;;;30.38;;
30874;SDS011;17581;43.222;27.924;2024-03-08T05:13:29;53.78;;;28.42;;
30874;SDS011;17581;43.222;27.924;2024-03-08T05:15:56;53.08;;;28.52;;
30874;SDS011;17581;43.222;27.924;2024-03-08T05:18:23;55.28;;;30.05;;
30874;SDS011;17581;43.222;27.924;2024-03-08T05:20:49;48.20;;;27.92;;
30874;SDS011;17581;43.222;27.924;2024-03-08T05:23:15;48.65;;;28.55;;
30874;SDS011;17581;43.222;27.924;2024-03-08T05:25:40;53.15;;;27.80;;
30874;SDS011;17581;43.222;27.924;2024-03-08T05:28:06;49.95;;;27.75;;
30874;SDS011;17581;43.222;27.924;2024-03-08T05:30:32;59.85;;;32.30;;
30874;SDS011;17581;43.222;27.924;2024-03-08T05:32:57;58.58;;;30.77;;
30874;SDS011;17581;43.222;27.924;2024-03-08T05:35:22;53.42;;;29.23;;
30874;SDS011;17581;43.222;27.924;2024-03-08T05:37:49;48.38;;;29.38;;
30874;SDS011;17581;43.222;27.924;2024-03-08T05:40:15;54.58;;;29.42;;
30874;SDS011;17581;43.222;27.924;2024-03-08T05:42:40;57.85;;;31.10;;
30874;SDS011;17581;43.222;27.924;2024-03-08T05:45:06;53.40;;;30.67;;
30874;SDS011;17581;43.222;27.924;2024-03-08T05:47:32;57.33;;;28.80;;
30874;SDS011;17581;43.222;27.924;2024-03-08T05:50:00;58.42;;;30.25;;
30874;SDS011;17581;43.222;27.924;2024-03-08T05:52:26;58.03;;;30.60;;
30874;SDS011;17581;43.222;27.924;2024-03-08T05:57:24;61.97;;;30.10;;
30874;SDS011;17581;43.222;27.924;2024-03-08T05:59:49;65.32;;;31.70;;
30874;SDS011;17581;43.222;27.924;2024-03-08T06:02:15;48.55;;;28.83;;
30874;SDS011;17581;43.222;27.924;2024-03-08T06:04:44;67.70;;;30.83;;
30874;SDS011;17581;43.222;27.924;2024-03-08T06:07:12;46.13;;;28.08;;
30874;SDS011;17581;43.222;27.924;2024-03-08T06:09:38;52.90;;;28.73;;
30874;SDS011;17581;43.222;27.924;2024-03-08T06:12:03;63.22;;;30.40;;
30874;SDS011;17581;43.222;27.924;2024-03-08T06:14:31;53.58;;;31.88;;
30874;SDS011;17581;43.222;27.924;2024-03-08T06:16:57;48.88;;;28.05;;
30874;SDS011;17581;43.222;27.924;2024-03-08T06:19:22;58.55;;;28.77;;
30874;SDS011;17581;43.222;27.924;2024-03-08T06:21:48;51.55;;;29.40;;
30874;SDS011;17581;43.222;27.924;2024-03-08T06:24:13;55.25;;;27.20;;
30874;SDS011;17581;43.222;27.924;2024-03-08T06:26:40;51.60;;;27.73;;
30874;SDS011;17581;43.222;27.924;2024-03-08T06:29:06;49.05;;;26.88;;
30874;SDS011;17581;43.222;27.924;2024-03-08T06:31:32;49.90;;;26.23;;
30874;SDS011;17581;43.222;27.924;2024-03-08T06:33:57;44.00;;;24.50;;
30874;SDS011;17581;43.222;27.924;2024-03-08T06:36:23;54.03;;;24.58;;
30874;SDS011;17581;43.222;27.924;2024-03-08T06:38:49;42.05;;;24.52;;
30874;SDS011;17581;43.222;27.924;2024-03-08T06:41:15;41.47;;;23.73;;
30874;SDS011;17581;43.222;27.924;2024-03-08T06:43:44;38.30;;;21.63;;
30874;SDS011;17581;43.222;27.924;2024-03-08T06:46:10;34.38;;;22.33;;
30874;SDS011;17581;43.222;27.924;2024-03-08T06:48:38;39.90;;;22.10;;
30874;SDS011;17581;43.222;27.924;2024-03-08T06:51:04;37.63;;;21.85;;
30874;SDS011;17581;43.222;27.924;2024-03-08T06:53:30;31.70;;;20.50;;
30874;SDS011;17581;43.222;27.924;2024-03-08T06:55:56;33.03;;;21.25;;
30874;SDS011;17581;43.222;27.924;2024-03-08T06:58:22;35.40;;;20.95;;
30874;SDS011;17581;43.222;27.924;2024-03-08T07:00:48;43.05;;;19.70;;
30874;SDS011;17581;43.222;27.924;2024-03-08T07:03:17;42.38;;;22.25;;
30874;SDS011;17581;43.222;27.924;2024-03-08T07:05:42;34.92;;;20.67;;
30874;SDS011;17581;43.222;27.924;2024-03-08T07:08:08;40.80;;;20.80;;
30874;SDS011;17581;43.222;27.924;2024-03-08T07:10:33;38.45;;;21.58;;
30874;SDS011;17581;43.222;27.924;2024-03-08T07:13:00;38.50;;;22.85;;
30874;SDS011;17581;43.222;27.924;2024-03-08T07:15:27;42.80;;;20.95;;
30874;SDS011;17581;43.222;27.924;2024-03-08T07:17:53;56.90;;;27.40;;
30874;SDS011;17581;43.222;27.924;2024-03-08T07:20:18;48.75;;;26.27;;
30874;SDS011;17581;43.222;27.924;2024-03-08T07:22:47;65.82;;;28.60;;
30874;SDS011;17581;43.222;27.924;2024-03-08T07:25:13;73.30;;;32.65;;
30874;SDS011;17581;43.222;27.924;2024-03-08T07:27:54;67.60;;;30.27;;
30874;SDS011;17581;43.222;27.924;2024-03-08T07:30:21;63.50;;;29.35;;
30874;SDS011;17581;43.222;27.924;2024-03-08T07:33:08;54.92;;;32.05;;
30874;SDS011;17581;43.222;27.924;2024-03-08T07:35:37;55.90;;;27.92;;
30874;SDS011;17581;43.222;27.924;2024-03-08T07:38:12;79.18;;;32.60;;
30874;SDS011;17581;43.222;27.924;2024-03-08T07:40:41;61.72;;;28.48;;
30874;SDS011;17581;43.222;27.924;2024-03-08T07:43:09;57.85;;;29.95;;
30874;SDS011;17581;43.222;27.924;2024-03-08T07:45:36;51.85;;;29.42;;
30874;SDS011;17581;43.222;27.924;2024-03-08T07:48:02;50.67;;;29.42;;
30874;SDS011;17581;43.222;27.924;2024-03-08T07:50:28;58.42;;;33.15;;
30874;SDS011;17581;43.222;27.924;2024-03-08T07:52:54;63.35;;;34.30;;
30874;SDS011;17581;43.222;27.924;2024-03-08T07:55:19;58.17;;;30.02;;
30874;SDS011;17581;43.222;27.924;2024-03-08T07:57:45;60.33;;;29.77;;
30874;SDS011;17581;43.222;27.924;2024-03-08T08:00:12;44.45;;;26.45;;
30874;SDS011;17581;43.222;27.924;2024-03-08T08:02:43;53.15;;;27.48;;
30874;SDS011;17581;43.222;27.924;2024-03-08T08:05:11;45.83;;;26.05;;
30874;SDS011;17581;43.222;27.924;2024-03-08T08:07:37;46.83;;;23.45;;
30874;SDS011;17581;43.222;27.924;2024-03-08T08:10:02;39.92;;;24.42;;
30874;SDS011;17581;43.222;27.924;2024-03-08T08:12:28;39.10;;;25.30;;
30874;SDS011;17581;43.222;27.924;2024-03-08T08:14:54;39.90;;;23.52;;
30874;SDS011;17581;43.222;27.924;2024-03-08T08:17:19;43.60;;;23.20;;
30874;SDS011;17581;43.222;27.924;2024-03-08T08:19:45;51.13;;;26.50;;
30874;SDS011;17581;43.222;27.924;2024-03-08T08:22:11;36.15;;;24.02;;
30874;SDS011;17581;43.222;27.924;2024-03-08T08:24:36;40.92;;;23.98;;
30874;SDS011;17581;43.222;27.924;2024-03-08T08:27:02;44.58;;;23.17;;
30874;SDS011;17581;43.222;27.924;2024-03-08T08:29:29;44.80;;;24.95;;
30874;SDS011;17581;43.222;27.924;2024-03-08T08:31:57;56.88;;;27.20;;
30874;SDS011;17581;43.222;27.924;2024-03-08T08:34:24;45.70;;;23.98;;
30874;SDS011;17581;43.222;27.924;2024-03-08T08:36:51;40.40;;;23.38;;
30874;SDS011;17581;43.222;27.924;2024-03-08T08:39:17;42.85;;;23.45;;
30874;SDS011;17581;43.222;27.924;2024-03-08T08:41:43;33.17;;;21.73;;
30874;SDS011;17581;43.222;27.924;2024-03-08T08:44:08;44.17;;;22.02;;
30874;SDS011;17581;43.222;27.924;2024-03-08T08:46:35;38.70;;;24.52;;
30874;SDS011;17581;43.222;27.924;2024-03-08T08:49:03;37.85;;;22.90;;
30874;SDS011;17581;43.222;27.924;2024-03-08T08:51:29;44.97;;;23.27;;
30874;SDS011;17581;43.222;27.924;2024-03-08T08:53:54;48.65;;;21.08;;
30874;SDS011;17581;43.222;27.924;2024-03-08T08:56:21;36.33;;;20.33;;
30874;SDS011;17581;43.222;27.924;2024-03-08T08:58:47;36.13;;;19.45;;
30874;SDS011;17581;43.222;27.924;2024-03-08T09:01:14;40.03;;;20.38;;
30874;SDS011;17581;43.222;27.924;2024-03-08T09:03:39;44.05;;;20.80;;
30874;SDS011;17581;43.222;27.924;2024-03-08T09:06:11;41.85;;;21.23;;
30874;SDS011;17581;43.222;27.924;2024-03-08T09:08:38;37.53;;;21.58;;
30874;SDS011;17581;43.222;27.924;2024-03-08T09:11:04;45.90;;;23.42;;
30874;SDS011;17581;43.222;27.924;2024-03-08T09:13:30;52.40;;;22.75;;
30874;SDS011;17581;43.222;27.924;2024-03-08T09:15:59;42.60;;;21.65;;
30874;SDS011;17581;43.222;27.924;2024-03-08T09:18:25;55.30;;;24.60;;
30874;SDS011;17581;43.222;27.924;2024-03-08T09:20:52;47.55;;;25.45;;
30874;SDS011;17581;43.222;27.924;2024-03-08T09:23:21;48.00;;;24.60;;
30874;SDS011;17581;43.222;27.924;2024-03-08T09:25:47;45.95;;;23.45;;
30874;SDS011;17581;43.222;27.924;2024-03-08T09:28:12;55.72;;;26.58;;
30874;SDS011;17581;43.222;27.924;2024-03-08T09:30:39;61.08;;;27.92;;
30874;SDS011;17581;43.222;27.924;2024-03-08T09:33:04;45.08;;;23.77;;
30874;SDS011;17581;43.222;27.924;2024-03-08T09:35:31;42.40;;;24.17;;
30874;SDS011;17581;43.222;27.924;2024-03-08T09:37:56;53.08;;;24.88;;
30874;SDS011;17581;43.222;27.924;2024-03-08T09:40:22;48.78;;;27.20;;
30874;SDS011;17581;43.222;27.924;2024-03-08T09:42:49;45.72;;;23.45;;
30874;SDS011;17581;43.222;27.924;2024-03-08T09:45:15;59.60;;;25.75;;
30874;SDS011;17581;43.222;27.924;2024-03-08T09:47:44;58.92;;;25.60;;
30874;SDS011;17581;43.222;27.924;2024-03-08T09:50:10;54.20;;;25.45;;
30874;SDS011;17581;43.222;27.924;2024-03-08T09:52:40;39.92;;;22.08;;
30874;SDS011;17581;43.222;27.924;2024-03-08T09:55:06;48.63;;;27.30;;
30874;SDS011;17581;43.222;27.924;2024-03-08T09:57:33;47.70;;;24.33;;
30874;SDS011;17581;43.222;27.924;2024-03-08T10:00:01;52.45;;;26.65;;
30874;SDS011;17581;43.222;27.924;2024-03-08T10:02:26;69.72;;;29.05;;
30874;SDS011;17581;43.222;27.924;2024-03-08T10:04:53;53.95;;;25.65;;
30874;SDS011;17581;43.222;27.924;2024-03-08T10:07:19;46.53;;;24.50;;
30874;SDS011;17581;43.222;27.924;2024-03-08T10:09:44;46.85;;;25.30;;
30874;SDS011;17581;43.222;27.924;2024-03-08T10:12:15;55.30;;;25.90;;
30874;SDS011;17581;43.222;27.924;2024-03-08T10:14:42;57.03;;;25.38;;
30874;SDS011;17581;43.222;27.924;2024-03-08T10:17:09;45.70;;;24.08;;
30874;SDS011;17581;43.222;27.924;2024-03-08T10:19:34;45.20;;;23.85;;
30874;SDS011;17581;43.222;27.924;2024-03-08T10:22:00;46.78;;;23.35;;
30874;SDS011;17581;43.222;27.924;2024-03-08T10:24:25;48.72;;;27.38;;
30874;SDS011;17581;43.222;27.924;2024-03-08T10:27:01;50.58;;;25.98;;
30874;SDS011;17581;43.222;27.924;2024-03-08T10:29:33;52.40;;;24.88;;
30874;SDS011;17581;43.222;27.924;2024-03-08T10:31:59;64.30;;;26.15;;
30874;SDS011;17581;43.222;27.924;2024-03-08T10:34:24;38.13;;;22.45;;
30874;SDS011;17581;43.222;27.924;2024-03-08T10:36:50;60.13;;;27.98;;
30874;SDS011;17581;43.222;27.924;2024-03-08T10:39:20;47.47;;;24.95;;
30874;SDS011;17581;43.222;27.924;2024-03-08T10:41:54;44.38;;;23.65;;
30874;SDS011;17581;43.222;27.924;2024-03-08T10:44:32;43.80;;;23.50;;
30874;SDS011;17581;43.222;27.924;2024-03-08T10:47:24;53.50;;;25.00;;
30874;SDS011;17581;43.222;27.924;2024-03-08T10:49:59;52.95;;;25.80;;
30874;SDS011;17581;43.222;27.924;2024-03-08T10:52:29;45.17;;;22.23;;
30874;SDS011;17581;43.222;27.924;2024-03-08T10:54:56;48.63;;;25.63;;
30874;SDS011;17581;43.222;27.924;2024-03-08T10:57:24;52.60;;;26.63;;
30874;SDS011;17581;43.222;27.924;2024-03-08T10:59:49;51.20;;;24.35;;
30874;SDS011;17581;43.222;27.924;2024-03-08T11:02:16;44.05;;;25.27;;
30874;SDS011;17581;43.222;27.924;2024-03-08T11:04:47;46.65;;;24.63;;
30874;SDS011;17581;43.222;27.924;2024-03-08T11:07:14;60.45;;;27.70;;
30874;SDS011;17581;43.222;27.924;2024-03-08T11:09:47;46.60;;;26.33;;
30874;SDS011;17581;43.222;27.924;2024-03-08T11:12:24;44.13;;;24.88;;
30874;SDS011;17581;43.222;27.924;2024-03-08T11:14:53;52.45;;;24.42;;
30874;SDS011;17581;43.222;27.924;2024-03-08T11:17:26;46.70;;;24.67;;
30874;SDS011;17581;43.222;27.924;2024-03-08T11:20:12;48.25;;;24.77;;
30874;SDS011;17581;43.222;27.924;2024-03-08T11:22:48;63.30;;;25.20;;
30874;SDS011;17581;43.222;27.924;2024-03-08T11:25:35;48.63;;;23.20;;
30874;SDS011;17581;43.222;27.924;2024-03-08T11:28:17;52.60;;;23.88;;
30874;SDS011;17581;43.222;27.924;2024-03-08T11:30:44;44.58;;;24.70;;
30874;SDS011;17581;43.222;27.924;2024-03-08T11:33:31;58.75;;;24.23;;
30874;SDS011;17581;43.222;27.924;2024-03-08T11:36:13;47.42;;;27.02;;
30874;SDS011;17581;43.222;27.924;2024-03-08T11:38:49;49.00;;;24.10;;
30874;SDS011;17581;43.222;27.924;2024-03-08T11:41:21;51.38;;;26.10;;
30874;SDS011;17581;43.222;27.924;2024-03-08T11:44:02;64.53;;;24.92;;
30874;SDS011;17581;43.222;27.924;2024-03-08T11:46:32;57.72;;;24.70;;
30874;SDS011;17581;43.222;27.924;2024-03-08T11:48:59;46.13;;;25.42;;
30874;SDS011;17581;43.222;27.924;2024-03-08T11:51:26;65.90;;;26.60;;
30874;SDS011;17581;43.222;27.924;2024-03-08T11:53:52;47.95;;;26.70;;
30874;SDS011;17581;43.222;27.924;2024-03-08T11:56:18;45.03;;;24.58;;
30874;SDS011;17581;43.222;27.924;2024-03-08T11:58:55;47.95;;;24.77;;
30874;SDS011;17581;43.222;27.924;2024-03-08T12:01:22;48.10;;;25.35;;
30874;SDS011;17581;43.222;27.924;2024-03-08T12:03:55;40.17;;;23.55;;
30874;SDS011;17581;43.222;27.924;2024-03-08T12:06:25;49.88;;;21.98;;
30874;SDS011;17581;43.222;27.924;2024-03-08T12:08:52;47.13;;;22.58;;
30874;SDS011;17581;43.222;27.924;2024-03-08T12:11:18;44.90;;;24.08;;
30874;SDS011;17581;43.222;27.924;2024-03-08T12:13:48;50.22;;;21.75;;
30874;SDS011;17581;43.222;27.924;2024-03-08T12:16:18;38.47;;;22.80;;
30874;SDS011;17581;43.222;27.924;2024-03-08T12:18:44;47.17;;;21.20;;
30874;SDS011;17581;43.222;27.924;2024-03-08T12:21:11;41.83;;;22.77;;
30874;SDS011;17581;43.222;27.924;2024-03-08T12:23:39;34.42;;;20.23;;
30874;SDS011;17581;43.222;27.924;2024-03-08T12:28:41;45.55;;;20.77;;
30874;SDS011;17581;43.222;27.924;2024-03-08T12:31:12;56.90;;;22.90;;
30874;SDS011;17581;43.222;27.924;2024-03-08T12:36:17;48.50;;;23.05;;
30874;SDS011;17581;43.222;27.924;2024-03-08T12:38:46;51.33;;;22.58;;
30874;SDS011;17581;43.222;27.924;2024-03-08T12:41:18;41.10;;;20.98;;
30874;SDS011;17581;43.222;27.924;2024-03-08T12:43:44;46.13;;;22.77;;
30874;SDS011;17581;43.222;27.924;2024-03-08T12:46:19;55.63;;;21.85;;
30874;SDS011;17581;43.222;27.924;2024-03-08T12:48:46;34.17;;;19.90;;
30874;SDS011;17581;43.222;27.924;2024-03-08T12:51:15;57.15;;;22.95;;
30874;SDS011;17581;43.222;27.924;2024-03-08T12:53:43;73.25;;;23.45;;
30874;SDS011;17581;43.222;27.924;2024-03-08T12:56:12;51.80;;;23.52;;
30874;SDS011;17581;43.222;27.924;2024-03-08T12:58:39;58.33;;;22.35;;
30874;SDS011;17581;43.222;27.924;2024-03-08T13:01:05;65.80;;;23.17;;
30874;SDS011;17581;43.222;27.924;2024-03-08T13:03:33;41.67;;;21.80;;
30874;SDS011;17581;43.222;27.924;2024-03-08T13:06:00;55.22;;;22.27;;
30874;SDS011;17581;43.222;27.924;2024-03-08T13:08:27;50.05;;;22.02;;
30874;SDS011;17581;43.222;27.924;2024-03-08T13:10:54;41.55;;;21.58;;
30874;SDS011;17581;43.222;27.924;2024-03-08T13:13:20;53.95;;;23.75;;
30874;SDS011;17581;43.222;27.924;2024-03-08T13:15:45;49.13;;;23.70;;
30874;SDS011;17581;43.222;27.924;2024-03-08T13:18:11;59.13;;;23.75;;
30874;SDS011;17581;43.222;27.924;2024-03-08T13:20:36;57.58;;;24.00;;
30874;SDS011;17581;43.222;27.924;2024-03-08T13:23:06;73.63;;;26.20;;
30874;SDS011;17581;43.222;27.924;2024-03-08T13:25:33;43.90;;;24.23;;
30874;SDS011;17581;43.222;27.924;2024-03-08T13:27:59;48.97;;;23.20;;
30874;SDS011;17581;43.222;27.924;2024-03-08T13:30:25;56.42;;;24.52;;
30874;SDS011;17581;43.222;27.924;2024-03-08T13:32:52;56.40;;;23.17;;
30874;SDS011;17581;43.222;27.924;2024-03-08T13:35:18;70.57;;;23.65;;
30874;SDS011;17581;43.222;27.924;2024-03-08T13:37:49;56.70;;;26.08;;
30874;SDS011;17581;43.222;27.924;2024-03-08T13:40:16;79.15;;;23.88;;
30874;SDS011;17581;43.222;27.924;2024-03-08T13:42:45;98.40;;;26.27;;
30874;SDS011;17581;43.222;27.924;2024-03-08T13:45:12;55.83;;;24.90;;
30874;SDS011;17581;43.222;27.924;2024-03-08T13:47:38;52.20;;;22.80;;
30874;SDS011;17581;43.222;27.924;2024-03-08T13:50:08;55.60;;;25.15;;
30874;SDS011;17581;43.222;27.924;2024-03-08T13:52:40;59.40;;;23.13;;
30874;SDS011;17581;43.222;27.924;2024-03-08T13:55:06;72.65;;;23.58;;
30874;SDS011;17581;43.222;27.924;2024-03-08T13:57:32;64.32;;;22.95;;
30874;SDS011;17581;43.222;27.924;2024-03-08T13:59:58;60.20;;;26.85;;
30874;SDS011;17581;43.222;27.924;2024-03-08T14:02:24;88.57;;;26.20;;
30874;SDS011;17581;43.222;27.924;2024-03-08T14:04:55;89.05;;;26.17;;
30874;SDS011;17581;43.222;27.924;2024-03-08T14:07:22;68.60;;;23.70;;
30874;SDS011;17581;43.222;27.924;2024-03-08T14:09:48;68.80;;;22.70;;
30874;SDS011;17581;43.222;27.924;2024-03-08T14:12:14;40.80;;;19.92;;
30874;SDS011;17581;43.222;27.924;2024-03-08T14:14:43;52.97;;;22.55;;
30874;SDS011;17581;43.222;27.924;2024-03-08T14:17:09;50.78;;;20.50;;